createdAt,value
2023-03-27T00:02:25.882Z,1.50
2023-03-27T00:04:52.438Z,1.60
2023-03-27T00:07:18.926Z,1.45
2023-03-27T00:09:45.532Z,1.50
2023-03-27T00:12:12.095Z,1.48
2023-03-27T00:14:39.877Z,1.40
2023-03-27T00:17:06.385Z,1.58
2023-03-27T00:19:32.899Z,1.25
2023-03-27T00:21:59.351Z,1.35
2023-03-27T00:24:25.797Z,1.70
2023-03-27T00:26:52.250Z,1.25
2023-03-27T00:29:18.699Z,1.70
2023-03-27T00:31:46.493Z,1.40
2023-03-27T00:34:13.156Z,1.40
2023-03-27T00:36:39.597Z,1.42
2023-03-27T00:39:06.069Z,1.25
2023-03-27T00:41:32.639Z,1.63
2023-03-27T00:43:59.213Z,1.25
2023-03-27T00:46:33.555Z,1.40
2023-03-27T00:49:05.620Z,1.67
2023-03-27T00:51:34.796Z,1.27
2023-03-27T00:54:01.339Z,1.60
2023-03-27T00:56:28.088Z,1.30
2023-03-27T00:58:59.674Z,1.25
2023-03-27T01:01:28.370Z,1.40
2023-03-27T01:03:58.286Z,1.40
2023-03-27T01:06:27.327Z,1.23
2023-03-27T01:08:53.920Z,1.48
2023-03-27T01:11:32.598Z,1.65
2023-03-27T01:14:12.190Z,1.52
2023-03-27T01:16:47.153Z,1.17
2023-03-27T01:19:40.380Z,1.67
2023-03-27T01:22:37.774Z,1.58
2023-03-27T01:25:21.794Z,1.30
2023-03-27T01:28:11.766Z,1.17
2023-03-27T01:30:43.250Z,1.20
2023-03-27T01:33:27.025Z,1.20
2023-03-27T01:36:10.041Z,1.30
2023-03-27T01:39:03.090Z,1.50
2023-03-27T01:41:34.935Z,1.27
2023-03-27T01:44:09.405Z,1.40
2023-03-27T01:46:43.491Z,1.38
2023-03-27T01:49:14.331Z,1.48
2023-03-27T01:51:46.825Z,1.58
2023-03-27T01:54:19.662Z,1.50
2023-03-27T01:56:51.904Z,1.48
2023-03-27T01:59:20.909Z,1.20
2023-03-27T02:01:54.263Z,1.35
2023-03-27T02:04:25.510Z,1.50
2023-03-27T02:06:56.957Z,1.50
2023-03-27T02:09:27.730Z,1.50
2023-03-27T02:12:02.899Z,1.40
2023-03-27T02:14:35.559Z,1.73
2023-03-27T02:17:07.341Z,1.40
2023-03-27T02:19:37.219Z,1.40
2023-03-27T02:22:03.717Z,1.50
2023-03-27T02:24:30.177Z,1.10
2023-03-27T02:27:00.008Z,1.13
2023-03-27T02:29:41.079Z,1.17
2023-03-27T02:32:21.333Z,1.30
2023-03-27T02:35:05.806Z,1.13
2023-03-27T02:37:44.191Z,1.40
2023-03-27T02:40:19.534Z,1.35
2023-03-27T02:43:00.878Z,1.23
2023-03-27T02:45:36.961Z,1.00
2023-03-27T02:48:09.983Z,1.20
2023-03-27T02:50:40.623Z,1.10
2023-03-27T02:53:09.291Z,1.25
2023-03-27T02:55:40.426Z,1.25
2023-03-27T02:58:11.410Z,1.30
2023-03-27T03:00:41.809Z,1.20
2023-03-27T03:03:13.690Z,1.60
2023-03-27T03:05:40.406Z,1.30
2023-03-27T03:08:07.080Z,1.20
2023-03-27T03:10:33.672Z,1.20
2023-03-27T03:13:00.196Z,1.13
2023-03-27T03:15:28.169Z,1.30
2023-03-27T03:17:54.777Z,0.90
2023-03-27T03:20:21.485Z,1.15
2023-03-27T03:22:47.983Z,1.25
2023-03-27T03:25:14.597Z,1.00
2023-03-27T03:27:41.036Z,1.10
2023-03-27T03:30:08.420Z,0.80
2023-03-27T03:32:36.297Z,1.40
2023-03-27T03:35:02.803Z,1.20
2023-03-27T03:37:29.281Z,1.02
2023-03-27T03:39:55.766Z,1.00
2023-03-27T03:42:24.285Z,1.20
2023-03-27T03:44:51.004Z,1.10
2023-03-27T03:47:17.773Z,1.02
2023-03-27T03:49:45.537Z,1.20
2023-03-27T03:52:12.148Z,1.00
2023-03-27T03:54:38.754Z,0.95
2023-03-27T03:57:05.359Z,1.17
2023-03-27T03:59:32.021Z,1.00
2023-03-27T04:01:58.521Z,1.00
2023-03-27T04:04:24.987Z,1.02
2023-03-27T04:06:52.723Z,1.13
2023-03-27T04:09:19.225Z,1.00
2023-03-27T04:11:45.681Z,1.02
2023-03-27T04:14:12.145Z,0.90
2023-03-27T04:16:38.601Z,0.93
2023-03-27T04:19:05.071Z,1.10
2023-03-27T04:21:31.580Z,1.10
2023-03-27T04:23:59.449Z,0.93
2023-03-27T04:26:25.952Z,1.15
2023-03-27T04:28:52.621Z,0.90
2023-03-27T04:31:19.112Z,1.05
2023-03-27T04:33:45.606Z,0.98
2023-03-27T04:36:13.358Z,0.85
2023-03-27T04:38:40.368Z,1.20
2023-03-27T04:41:08.653Z,1.20
2023-03-27T04:43:35.585Z,1.13
2023-03-27T04:46:02.037Z,1.20
2023-03-27T04:48:28.506Z,0.98
2023-03-27T04:50:55.344Z,1.15
2023-03-27T04:53:21.926Z,0.80
2023-03-27T04:55:49.310Z,1.10
2023-03-27T04:58:17.305Z,0.82
2023-03-27T05:00:44.658Z,1.00
2023-03-27T05:03:11.225Z,1.05
2023-03-27T05:05:37.734Z,1.20
2023-03-27T05:08:04.463Z,0.93
2023-03-27T05:10:30.937Z,1.08
2023-03-27T05:12:58.481Z,0.93
2023-03-27T05:15:26.366Z,1.10
2023-03-27T05:17:52.897Z,0.93
2023-03-27T05:20:20.267Z,1.40
2023-03-27T05:22:46.742Z,2.75
2023-03-27T05:25:13.241Z,2.20
2023-03-27T05:27:44.792Z,1.85
2023-03-27T05:30:12.235Z,1.73
2023-03-27T05:32:40.036Z,1.90
2023-03-27T05:35:06.839Z,1.55
2023-03-27T05:37:33.290Z,1.92
2023-03-27T05:39:59.752Z,1.70
2023-03-27T05:42:26.205Z,1.60
2023-03-27T05:44:52.723Z,1.60
2023-03-27T05:47:19.162Z,1.55
2023-03-27T05:49:46.965Z,2.10
2023-03-27T05:52:13.386Z,1.80
2023-03-27T05:54:39.822Z,1.48
2023-03-27T05:57:06.327Z,1.48
2023-03-27T05:59:33.049Z,1.60
2023-03-27T06:01:59.601Z,1.48
2023-03-27T06:04:26.145Z,1.38
2023-03-27T06:06:53.930Z,1.25
2023-03-27T06:09:20.431Z,1.88
2023-03-27T06:11:47.028Z,1.48
2023-03-27T06:14:13.528Z,1.60
2023-03-27T06:16:40.077Z,1.40
2023-03-27T06:19:06.572Z,1.25
2023-03-27T06:21:33.051Z,1.63
2023-03-27T06:24:00.860Z,1.58
2023-03-27T06:26:27.388Z,1.70
2023-03-27T06:28:53.894Z,1.35
2023-03-27T06:31:20.598Z,1.50
2023-03-27T06:33:47.473Z,1.45
2023-03-27T06:36:13.981Z,1.50
2023-03-27T06:38:40.567Z,1.20
2023-03-27T06:41:08.404Z,1.30
2023-03-27T06:43:34.889Z,1.20
2023-03-27T06:46:01.553Z,1.50
2023-03-27T06:48:28.175Z,1.35
2023-03-27T06:50:54.796Z,1.30
2023-03-27T06:53:27.136Z,1.50
2023-03-27T06:55:55.195Z,1.30
2023-03-27T06:58:23.296Z,1.42
2023-03-27T07:00:50.288Z,1.45
2023-03-27T07:03:18.303Z,1.27
2023-03-27T07:05:45.278Z,1.42
2023-03-27T07:10:43.727Z,1.55
2023-03-27T07:13:10.567Z,1.23
2023-03-27T07:15:38.609Z,1.80
2023-03-27T07:18:06.898Z,1.55
2023-03-27T07:20:34.778Z,1.40
2023-03-27T07:23:02.200Z,1.50
2023-03-27T07:25:30.501Z,1.42
2023-03-27T07:27:58.357Z,1.30
2023-03-27T07:30:25.000Z,1.55
2023-03-27T07:32:52.910Z,1.45
2023-03-27T07:35:19.535Z,1.33
2023-03-27T07:37:46.061Z,1.30
2023-03-27T07:40:12.839Z,1.50
2023-03-27T07:42:42.488Z,1.50
2023-03-27T07:45:10.049Z,1.45
2023-03-27T07:47:36.545Z,1.38
2023-03-27T07:50:04.747Z,1.30
2023-03-27T07:52:31.386Z,1.27
2023-03-27T07:54:57.802Z,1.60
2023-03-27T07:57:24.393Z,1.42
2023-03-27T07:59:50.962Z,1.60
2023-03-27T08:02:17.439Z,1.85
2023-03-27T08:04:43.932Z,1.52
2023-03-27T08:07:11.912Z,1.80
2023-03-27T08:09:38.587Z,1.27
2023-03-27T08:12:05.337Z,1.90
2023-03-27T08:14:31.822Z,2.00
2023-03-27T08:17:12.451Z,1.80
2023-03-27T08:19:42.598Z,1.55
2023-03-27T08:22:09.227Z,1.52
2023-03-27T08:24:37.194Z,2.10
2023-03-27T08:27:04.080Z,1.95
2023-03-27T08:29:30.566Z,1.77
2023-03-27T08:31:57.630Z,2.03
2023-03-27T08:34:24.077Z,1.90
2023-03-27T08:36:50.809Z,1.90
2023-03-27T08:39:17.458Z,1.90
2023-03-27T08:41:51.554Z,2.13
2023-03-27T08:44:21.197Z,2.17
2023-03-27T08:46:52.901Z,3.63
2023-03-27T08:49:21.152Z,3.80
2023-03-27T08:51:52.742Z,5.78
2023-03-27T08:54:22.214Z,7.13
2023-03-27T08:56:50.472Z,5.93
2023-03-27T08:59:20.153Z,5.63
2023-03-27T09:01:54.234Z,4.95
2023-03-27T09:04:33.069Z,3.50
2023-03-27T09:07:05.208Z,4.03
2023-03-27T09:09:39.318Z,3.35
2023-03-27T09:12:18.868Z,3.50
2023-03-27T09:14:50.160Z,2.72
2023-03-27T09:17:23.259Z,3.00
2023-03-27T09:19:55.230Z,2.83
2023-03-27T09:22:25.254Z,2.45
2023-03-27T09:24:54.655Z,3.00
2023-03-27T09:27:27.001Z,2.85
2023-03-27T09:30:05.453Z,2.50
2023-03-27T09:32:33.265Z,2.50
2023-03-27T09:35:00.844Z,2.20
2023-03-27T09:37:27.649Z,2.40
2023-03-27T09:39:55.289Z,2.15
2023-03-27T09:42:28.455Z,2.28
2023-03-27T09:44:58.589Z,2.30
2023-03-27T09:47:30.957Z,2.78
2023-03-27T09:50:11.953Z,2.50
2023-03-27T09:52:39.968Z,2.00
2023-03-27T09:55:23.180Z,1.60
2023-03-27T09:57:53.003Z,2.30
2023-03-27T10:00:27.250Z,1.80
2023-03-27T10:03:00.389Z,2.10
2023-03-27T10:05:27.156Z,2.05
2023-03-27T10:07:53.697Z,2.00
2023-03-27T10:10:21.342Z,1.98
2023-03-27T10:12:53.883Z,1.98
2023-03-27T10:15:31.714Z,1.88
2023-03-27T10:17:59.422Z,1.60
2023-03-27T10:20:26.213Z,1.83
2023-03-27T10:22:54.905Z,1.70
2023-03-27T10:25:26.867Z,1.90
2023-03-27T10:28:06.380Z,1.70
2023-03-27T10:30:35.178Z,2.33
2023-03-27T10:33:02.141Z,3.05
2023-03-27T10:35:33.528Z,2.38
2023-03-27T10:38:03.806Z,3.13
2023-03-27T10:40:33.013Z,2.60
2023-03-27T10:43:04.041Z,2.72
2023-03-27T10:45:32.422Z,2.72
2023-03-27T10:48:01.425Z,2.90
2023-03-27T10:50:32.377Z,2.60
2023-03-27T10:53:05.661Z,2.67
2023-03-27T10:55:40.073Z,2.50
2023-03-27T10:58:21.875Z,3.50
2023-03-27T11:00:55.587Z,2.40
2023-03-27T11:03:28.039Z,3.75
2023-03-27T11:05:54.704Z,2.72
2023-03-27T11:08:27.497Z,2.90
2023-03-27T11:10:57.683Z,2.72
2023-03-27T11:13:28.564Z,3.05
2023-03-27T11:16:13.665Z,3.70
2023-03-27T11:18:45.692Z,2.97
2023-03-27T11:21:14.642Z,3.00
2023-03-27T11:23:47.136Z,2.88
2023-03-27T11:26:14.620Z,3.08
2023-03-27T11:28:46.615Z,3.30
2023-03-27T11:31:19.022Z,3.08
2023-03-27T11:33:51.252Z,3.22
2023-03-27T11:36:29.243Z,2.63
2023-03-27T11:39:07.290Z,3.55
2023-03-27T11:41:33.854Z,2.58
2023-03-27T11:44:01.818Z,2.28
2023-03-27T11:46:47.782Z,2.05
2023-03-27T11:49:30.223Z,1.92
2023-03-27T11:52:12.041Z,2.20
2023-03-27T11:54:54.345Z,2.17
2023-03-27T11:57:23.413Z,2.13
2023-03-27T11:59:59.276Z,1.45
2023-03-27T12:02:26.622Z,1.50
2023-03-27T12:04:52.879Z,1.67
2023-03-27T12:07:37.170Z,1.83
2023-03-27T12:10:28.385Z,1.45
2023-03-27T12:13:18.182Z,1.35
2023-03-27T12:16:05.395Z,1.40
2023-03-27T12:18:51.194Z,1.60
2023-03-27T12:21:38.952Z,1.48
2023-03-27T12:24:19.910Z,1.42
2023-03-27T12:27:02.824Z,1.20
2023-03-27T12:29:45.109Z,1.90
2023-03-27T12:32:25.366Z,1.45
2023-03-27T12:34:54.308Z,1.35
2023-03-27T12:37:24.714Z,1.42
2023-03-27T12:39:54.542Z,1.75
2023-03-27T12:42:44.047Z,1.80
2023-03-27T12:45:17.170Z,2.00
2023-03-27T12:47:45.241Z,1.50
2023-03-27T12:50:19.510Z,1.70
2023-03-27T12:52:46.537Z,1.85
2023-03-27T12:55:33.106Z,1.63
2023-03-27T12:58:01.664Z,1.70
2023-03-27T13:00:28.913Z,2.00
2023-03-27T13:03:21.063Z,1.50
2023-03-27T13:06:05.944Z,1.52
2023-03-27T13:08:49.284Z,1.30
2023-03-27T13:11:35.829Z,1.15
2023-03-27T13:14:20.429Z,1.27
2023-03-27T13:17:02.483Z,1.60
2023-03-27T13:19:40.237Z,1.40
2023-03-27T13:22:20.117Z,1.55
2023-03-27T13:25:02.136Z,1.10
2023-03-27T13:27:45.541Z,1.40
2023-03-27T13:30:41.735Z,1.17
2023-03-27T13:33:14.667Z,1.45
2023-03-27T13:35:53.203Z,1.55
2023-03-27T13:38:44.716Z,1.80
2023-03-27T13:41:31.157Z,1.85
2023-03-27T13:44:00.412Z,1.95
2023-03-27T13:46:27.437Z,2.40
2023-03-27T13:49:06.494Z,2.80
2023-03-27T13:51:51.216Z,3.22
2023-03-27T13:54:34.516Z,4.30
2023-03-27T13:57:11.650Z,3.87
2023-03-27T13:59:57.618Z,2.97
2023-03-27T14:02:44.648Z,3.00
2023-03-27T14:05:28.129Z,2.78
2023-03-27T14:08:08.758Z,2.30
2023-03-27T14:10:56.706Z,2.50
2023-03-27T14:13:35.136Z,2.55
2023-03-27T14:16:34.543Z,2.50
2023-03-27T14:19:17.194Z,2.15
2023-03-27T14:21:52.005Z,1.92
2023-03-27T14:24:27.273Z,2.53
2023-03-27T14:26:55.681Z,2.05
2023-03-27T14:29:22.264Z,2.35
2023-03-27T14:31:50.338Z,1.92
2023-03-27T14:34:20.834Z,2.53
2023-03-27T14:36:47.737Z,2.25
2023-03-27T14:39:16.731Z,2.10
2023-03-27T14:41:47.802Z,2.33
2023-03-27T14:44:14.351Z,2.85
2023-03-27T14:46:43.653Z,2.63
2023-03-27T14:49:15.270Z,2.00
2023-03-27T14:51:42.016Z,2.15
2023-03-27T14:54:14.991Z,2.58
2023-03-27T14:56:44.793Z,1.75
2023-03-27T14:59:14.479Z,1.83
2023-03-27T15:01:41.400Z,1.80
2023-03-27T15:04:08.582Z,1.85
2023-03-27T15:06:36.735Z,2.20
2023-03-27T15:09:04.695Z,1.60
2023-03-27T15:11:33.477Z,1.73
2023-03-27T15:13:59.976Z,1.75
2023-03-27T15:16:29.559Z,1.48
2023-03-27T15:19:00.456Z,1.73
2023-03-27T15:21:33.732Z,2.00
2023-03-27T15:24:06.667Z,1.63
2023-03-27T15:26:35.174Z,1.63
2023-03-27T15:29:05.804Z,1.70
2023-03-27T15:31:33.827Z,1.50
2023-03-27T15:34:03.824Z,1.60
2023-03-27T15:36:33.278Z,1.63
2023-03-27T15:39:02.309Z,1.35
2023-03-27T15:41:41.665Z,1.38
2023-03-27T15:44:13.037Z,1.50
2023-03-27T15:46:50.637Z,1.63
2023-03-27T15:49:23.741Z,1.50
2023-03-27T15:51:50.495Z,1.57
2023-03-27T15:54:29.285Z,1.63
2023-03-27T15:57:09.979Z,1.40
2023-03-27T15:59:51.771Z,1.38
2023-03-27T16:02:22.124Z,1.67
2023-03-27T16:04:52.370Z,1.20
2023-03-27T16:07:22.681Z,1.48
2023-03-27T16:09:53.829Z,1.63
2023-03-27T16:12:25.139Z,1.50
2023-03-27T16:14:54.607Z,1.70
2023-03-27T16:17:30.115Z,1.40
2023-03-27T16:19:58.998Z,1.42
2023-03-27T16:22:27.794Z,1.45
2023-03-27T16:24:59.599Z,1.40
2023-03-27T16:27:28.466Z,1.48
2023-03-27T16:29:54.922Z,1.40
2023-03-27T16:32:22.638Z,1.70
2023-03-27T16:34:49.666Z,1.33
2023-03-27T16:37:16.356Z,1.50
2023-03-27T16:39:43.159Z,1.50
2023-03-27T16:42:14.490Z,1.50
2023-03-27T16:44:41.163Z,1.35
2023-03-27T16:47:07.828Z,1.33
2023-03-27T16:49:34.522Z,1.30
2023-03-27T16:52:01.122Z,1.60
2023-03-27T16:54:29.753Z,1.30
2023-03-27T16:56:56.411Z,1.38
2023-03-27T16:59:24.675Z,1.48
2023-03-27T17:01:51.222Z,1.15
2023-03-27T17:04:17.725Z,1.40
2023-03-27T17:06:44.190Z,1.50
2023-03-27T17:09:10.984Z,1.52
2023-03-27T17:11:37.511Z,1.23
2023-03-27T17:14:04.016Z,1.60
2023-03-27T17:16:32.470Z,1.25
2023-03-27T17:18:58.996Z,1.42
2023-03-27T17:21:25.714Z,1.30
2023-03-27T17:23:52.356Z,1.40
2023-03-27T17:26:22.410Z,1.30
2023-03-27T17:28:49.022Z,1.50
2023-03-27T17:31:15.993Z,1.20
2023-03-27T17:33:43.832Z,1.45
2023-03-27T17:36:13.517Z,1.40
2023-03-27T17:38:40.366Z,1.38
2023-03-27T17:41:07.450Z,1.60
2023-03-27T17:43:34.268Z,1.50
2023-03-27T17:46:02.392Z,1.50
2023-03-27T17:48:31.818Z,1.27
2023-03-27T17:51:08.655Z,1.30
2023-03-27T17:53:36.460Z,1.60
2023-03-27T17:56:03.576Z,1.40
2023-03-27T17:58:30.087Z,1.10
2023-03-27T18:00:57.191Z,1.38
2023-03-27T18:03:24.087Z,1.20
2023-03-27T18:05:50.657Z,1.20
2023-03-27T18:08:19.060Z,1.30
2023-03-27T18:10:47.396Z,1.45
2023-03-27T18:13:13.947Z,1.35
2023-03-27T18:15:40.640Z,1.30
2023-03-27T18:18:07.817Z,1.02
2023-03-27T18:20:34.587Z,1.35
2023-03-27T18:23:01.118Z,1.13
2023-03-27T18:25:29.035Z,1.30
2023-03-27T18:27:55.581Z,1.30
2023-03-27T18:30:22.091Z,1.23
2023-03-27T18:32:48.754Z,1.38
2023-03-27T18:35:18.056Z,1.60
2023-03-27T18:37:45.854Z,1.40
2023-03-27T18:40:14.876Z,1.15
2023-03-27T18:42:42.818Z,1.48
2023-03-27T18:45:10.502Z,1.30
2023-03-27T18:47:37.472Z,1.67
2023-03-27T18:50:05.623Z,1.50
2023-03-27T18:52:32.776Z,1.20
2023-03-27T18:54:59.311Z,1.30
2023-03-27T18:57:25.841Z,1.30
2023-03-27T18:59:53.825Z,1.60
2023-03-27T19:02:20.664Z,1.15
2023-03-27T19:04:47.759Z,1.45
2023-03-27T19:07:14.867Z,1.70
2023-03-27T19:09:41.949Z,1.58
2023-03-27T19:12:08.626Z,1.30
2023-03-27T19:14:35.131Z,1.52
2023-03-27T19:17:03.083Z,1.30
2023-03-27T19:19:29.676Z,1.27
2023-03-27T19:21:56.266Z,1.23
2023-03-27T19:24:22.770Z,1.30
2023-03-27T19:26:49.339Z,1.60
2023-03-27T19:29:16.003Z,1.38
2023-03-27T19:31:42.523Z,1.23
2023-03-27T19:34:10.385Z,1.40
2023-03-27T19:36:36.959Z,1.33
2023-03-27T19:39:04.093Z,1.35
2023-03-27T19:41:31.842Z,1.17
2023-03-27T19:44:00.481Z,1.45
2023-03-27T19:46:28.633Z,1.50
2023-03-27T19:48:56.768Z,1.50
2023-03-27T19:51:25.166Z,1.20
2023-03-27T19:53:51.739Z,1.33
2023-03-27T19:56:20.005Z,1.10
2023-03-27T19:58:47.607Z,1.40
2023-03-27T20:01:15.390Z,1.38
2023-03-27T20:03:43.528Z,1.38
2023-03-27T20:06:14.730Z,1.08
2023-03-27T20:08:43.874Z,1.33
2023-03-27T20:11:14.421Z,1.25
2023-03-27T20:13:55.272Z,1.40
2023-03-27T20:16:26.044Z,1.10
2023-03-27T20:18:54.374Z,1.30
2023-03-27T20:21:22.957Z,1.30
2023-03-27T20:23:51.275Z,1.30
2023-03-27T20:26:18.193Z,1.30
2023-03-27T20:28:44.923Z,1.52
2023-03-27T20:31:11.497Z,1.27
2023-03-27T20:33:38.007Z,1.30
2023-03-27T20:36:04.729Z,1.23
2023-03-27T20:38:31.184Z,1.10
2023-03-27T20:40:59.121Z,1.38
2023-03-27T20:43:25.984Z,1.20
2023-03-27T20:45:53.548Z,1.20
2023-03-27T20:48:20.527Z,1.30
2023-03-27T20:50:49.067Z,1.30
2023-03-27T20:53:17.287Z,1.25
2023-03-27T20:55:57.033Z,1.30
2023-03-27T20:58:27.619Z,1.70
2023-03-27T21:00:54.880Z,1.30
2023-03-27T21:03:22.271Z,1.50
2023-03-27T21:05:49.070Z,1.10
2023-03-27T21:08:15.542Z,1.50
2023-03-27T21:10:42.256Z,1.20
2023-03-27T21:13:08.876Z,1.25
2023-03-27T21:15:36.690Z,1.20
2023-03-27T21:18:03.396Z,0.98
2023-03-27T21:20:29.915Z,1.40
2023-03-27T21:22:56.396Z,1.20
2023-03-27T21:25:23.067Z,1.13
2023-03-27T21:27:49.806Z,1.20
2023-03-27T21:30:16.703Z,1.30
2023-03-27T21:32:44.742Z,1.00
2023-03-27T21:35:11.596Z,1.52
2023-03-27T21:37:38.042Z,1.30
2023-03-27T21:40:05.447Z,1.55
2023-03-27T21:42:33.282Z,1.00
2023-03-27T21:44:59.858Z,1.30
2023-03-27T21:47:37.302Z,1.15
2023-03-27T21:50:13.611Z,1.27
2023-03-27T21:52:40.349Z,1.20
2023-03-27T21:55:07.258Z,1.15
2023-03-27T21:57:33.791Z,1.20
2023-03-27T22:00:00.263Z,1.23
2023-03-27T22:02:26.836Z,1.23
2023-03-27T22:04:53.353Z,1.35
2023-03-27T22:07:21.212Z,1.40
2023-03-27T22:09:47.716Z,1.08
2023-03-27T22:12:14.193Z,1.42
2023-03-27T22:14:40.652Z,1.00
2023-03-27T22:17:07.429Z,1.02
2023-03-27T22:19:33.885Z,1.13
2023-03-27T22:22:00.504Z,1.13
2023-03-27T22:24:28.933Z,1.10
2023-03-27T22:26:55.473Z,1.15
2023-03-27T22:29:21.912Z,1.50
2023-03-27T22:31:48.499Z,1.20
2023-03-27T22:34:15.103Z,1.20
2023-03-27T22:36:41.541Z,1.10
2023-03-27T22:39:08.051Z,1.20
2023-03-27T22:41:35.836Z,1.15
2023-03-27T22:44:02.340Z,0.90
2023-03-27T22:46:28.867Z,1.23
2023-03-27T22:48:56.484Z,1.05
2023-03-27T22:51:23.178Z,1.20
2023-03-27T22:53:49.784Z,0.90
2023-03-27T22:56:16.270Z,1.13
2023-03-27T22:58:44.274Z,1.02
2023-03-27T23:01:10.872Z,1.00
2023-03-27T23:03:37.756Z,1.02
2023-03-27T23:06:05.293Z,1.15
2023-03-27T23:08:32.134Z,1.00
2023-03-27T23:11:01.322Z,1.10
2023-03-27T23:13:30.603Z,1.10
2023-03-27T23:15:58.959Z,0.93
2023-03-27T23:18:25.908Z,1.10
2023-03-27T23:20:54.345Z,1.50
2023-03-27T23:23:20.926Z,1.13
2023-03-27T23:25:47.439Z,1.30
2023-03-27T23:28:13.922Z,1.17
2023-03-27T23:30:40.434Z,1.20
2023-03-27T23:33:08.255Z,1.10
2023-03-27T23:35:35.641Z,1.13
2023-03-27T23:38:02.264Z,1.20
2023-03-27T23:40:28.695Z,1.00
2023-03-27T23:42:55.321Z,1.30
2023-03-27T23:45:21.809Z,1.20
2023-03-27T23:47:48.308Z,0.85
2023-03-27T23:50:16.120Z,0.88
2023-03-27T23:52:42.684Z,1.30
2023-03-27T23:55:09.339Z,0.93
2023-03-27T23:57:35.832Z,0.90
